Time;durP1;ratioP1;P1;durP2;ratioP2;P2;SDS_P1;SDS_P2;PMS_P1;PMS_P2;Temp;Humidity;BMP_temperature;BMP_pressure;BME280_temperature;BME280_humidity;BME280_pressure;Samples;Min_cycle;Max_cycle;Signal;HPM_P1;HPM_P2
2021/11/04 00:02:24;;;;;;;16.10;6.50;;;9.10;1.00;;;;;;5055153;28;20425;-78
2021/11/04 00:04:50;;;;;;;10.30;5.60;;;9.10;1.00;;;;;;5042497;28;20533;-78
2021/11/04 00:07:17;;;;;;;16.27;6.50;;;9.10;1.00;;;;;;5053346;28;20501;-78
2021/11/04 00:09:48;;;;;;;10.83;6.30;;;9.00;1.00;;;;;;5057814;28;20175;-78
2021/11/04 00:12:14;;;;;;;10.97;6.77;;;9.00;1.00;;;;;;5054616;28;20493;-78
2021/11/04 00:14:40;;;;;;;13.33;6.10;;;8.90;1.00;;;;;;5054823;28;20438;-78
2021/11/04 00:17:19;;;;;;;8.27;5.57;;;9.00;1.00;;;;;;5055897;28;20187;-78
2021/11/04 00:19:45;;;;;;;9.73;6.90;;;9.00;1.00;;;;;;5054974;28;20211;-78
2021/11/04 00:22:12;;;;;;;9.10;6.20;;;8.90;1.00;;;;;;5068028;28;20436;-78
2021/11/04 00:24:43;;;;;;;10.27;5.93;;;8.90;1.00;;;;;;5054816;28;20262;-78
2021/11/04 00:27:12;;;;;;;10.77;6.30;;;8.90;1.00;;;;;;5051120;28;20425;-79
2021/11/04 00:29:43;;;;;;;16.53;6.27;;;8.90;1.00;;;;;;5051390;28;20453;-79
2021/11/04 00:32:08;;;;;;;10.10;5.87;;;8.80;1.00;;;;;;5051482;28;20434;-78
2021/11/04 00:34:34;;;;;;;15.03;6.10;;;8.90;1.00;;;;;;5054056;28;21081;-78
2021/11/04 00:37:00;;;;;;;32.20;7.17;;;8.90;1.00;;;;;;5054520;28;20480;-78
2021/11/04 00:39:26;;;;;;;13.70;6.73;;;8.80;1.00;;;;;;5072808;28;20194;-78
2021/11/04 00:42:01;;;;;;;9.53;6.07;;;8.80;1.00;;;;;;5064175;28;20175;-78
2021/11/04 00:44:27;;;;;;;8.40;6.40;;;8.80;1.00;;;;;;5035717;28;20161;-78
2021/11/04 00:46:55;;;;;;;11.70;7.00;;;8.80;1.00;;;;;;5054254;28;20421;-78
2021/11/04 00:49:24;;;;;;;20.37;7.30;;;8.80;1.00;;;;;;5057654;28;20751;-78
2021/11/04 00:51:55;;;;;;;9.43;6.47;;;;;;;;;;5056130;28;20453;-78
2021/11/04 00:54:25;;;;;;;10.10;6.23;;;8.80;1.00;;;;;;5054278;28;20501;-77
2021/11/04 00:56:54;;;;;;;8.67;6.17;;;8.70;1.00;;;;;;5067696;28;20425;-76
2021/11/04 00:59:24;;;;;;;15.30;6.07;;;8.80;1.00;;;;;;5057372;28;20456;-77
2021/11/04 01:01:50;;;;;;;10.50;5.90;;;8.80;1.00;;;;;;5040626;28;20772;-77
2021/11/04 01:04:16;;;;;;;10.70;5.97;;;8.80;1.00;;;;;;5053005;28;20410;-77
2021/11/04 01:06:42;;;;;;;10.23;6.20;;;;;;;;;;5052534;28;20508;-77
2021/11/04 01:09:08;;;;;;;13.00;6.77;;;;;;;;;;5039801;28;20596;-78
2021/11/04 01:11:33;;;;;;;11.47;6.30;;;8.80;1.00;;;;;;5056330;28;20505;-79
2021/11/04 01:13:59;;;;;;;9.77;6.37;;;;;;;;;;5056016;28;20461;-79
2021/11/04 01:16:25;;;;;;;11.60;5.63;;;8.80;1.00;;;;;;5052961;28;20180;-78
2021/11/04 01:18:51;;;;;;;8.97;5.23;;;;;;;;;;5053396;28;20453;-78
2021/11/04 01:21:17;;;;;;;11.10;5.80;;;;;;;;;;5063859;28;20183;-78
2021/11/04 01:23:43;;;;;;;8.87;5.80;;;8.80;1.00;;;;;;5053141;28;20885;-78
2021/11/04 01:26:13;;;;;;;15.70;7.20;;;8.80;1.00;;;;;;5051884;28;20410;-77
2021/11/04 01:28:39;;;;;;;7.20;4.57;;;8.70;1.00;;;;;;5051611;28;20179;-77
2021/11/04 01:31:06;;;;;;;9.87;6.20;;;8.70;1.00;;;;;;5053567;28;20935;-77
2021/11/04 01:33:54;;;;;;;13.67;6.03;;;8.70;1.00;;;;;;5058365;28;20443;-77
2021/11/04 01:36:20;;;;;;;9.23;5.77;;;8.80;1.00;;;;;;5057716;28;20445;-78
2021/11/04 01:38:48;;;;;;;11.83;5.93;;;8.70;1.00;;;;;;5053078;28;20453;-77
2021/11/04 01:41:16;;;;;;;10.00;6.30;;;8.80;1.00;;;;;;5049902;28;20182;-78
2021/11/04 01:43:55;;;;;;;13.73;5.87;;;8.80;1.00;;;;;;5053351;28;20426;-78
2021/11/04 01:46:25;;;;;;;7.90;5.63;;;8.80;1.00;;;;;;5053551;28;20421;-78
2021/11/04 01:48:51;;;;;;;8.30;5.50;;;8.80;1.00;;;;;;5053590;28;20414;-78
2021/11/04 01:51:25;;;;;;;10.00;5.90;;;8.80;1.00;;;;;;5060199;28;20429;-79
2021/11/04 01:53:54;;;;;;;7.63;5.53;;;8.80;1.00;;;;;;5053274;28;20422;-79
2021/11/04 01:56:20;;;;;;;7.10;4.73;;;8.70;1.00;;;;;;5053450;28;20778;-78
2021/11/04 01:58:49;;;;;;;7.90;5.30;;;8.80;1.00;;;;;;5053278;28;20458;-79
2021/11/04 02:01:24;;;;;;;7.67;5.30;;;8.70;1.00;;;;;;5048319;28;20169;-78
2021/11/04 02:03:50;;;;;;;8.87;4.67;;;8.80;1.00;;;;;;5036816;28;20402;-78
2021/11/04 02:06:54;;;;;;;9.90;5.30;;;8.80;1.00;;;;;;5053106;28;20413;-78
2021/11/04 02:09:57;;;;;;;8.90;5.53;;;8.80;1.00;;;;;;5039911;28;20178;-78
2021/11/04 02:12:40;;;;;;;9.07;5.90;;;8.80;1.00;;;;;;4979252;28;20479;-77
2021/11/04 02:15:08;;;;;;;7.77;5.53;;;8.70;1.00;;;;;;4991803;28;20432;-77
2021/11/04 02:17:44;;;;;;;9.03;6.23;;;8.80;1.00;;;;;;4991840;28;20440;-77
2021/11/04 02:20:50;;;;;;;25.70;7.60;;;8.80;1.00;;;;;;4996757;28;20483;-77
2021/11/04 02:23:49;;;;;;;8.53;6.40;;;8.90;1.00;;;;;;4984061;28;20428;-77
2021/11/04 02:26:25;;;;;;;17.10;8.70;;;8.90;1.00;;;;;;4974071;28;20425;-77
2021/11/04 02:28:55;;;;;;;13.70;7.43;;;8.90;1.00;;;;;;4956443;29;20418;-77
2021/11/04 02:31:22;;;;;;;13.93;7.27;;;8.90;1.00;;;;;;4958886;28;20466;-77
2021/11/04 02:33:49;;;;;;;9.33;6.97;;;8.90;1.00;;;;;;4956399;28;20937;-77
2021/11/04 02:36:16;;;;;;;15.20;8.90;;;9.00;1.00;;;;;;4956589;29;20437;-76
2021/11/04 02:38:43;;;;;;;16.73;8.27;;;8.90;1.00;;;;;;4956129;29;20459;-77
2021/11/04 02:41:09;;;;;;;17.90;8.10;;;8.90;1.00;;;;;;4961691;28;20444;-77
2021/11/04 02:43:36;;;;;;;10.93;7.70;;;9.00;1.00;;;;;;4955374;29;20422;-77
2021/11/04 02:46:04;;;;;;;14.20;8.40;;;9.00;1.00;;;;;;4955887;29;20482;-77
2021/11/04 02:48:40;;;;;;;14.80;8.63;;;9.00;1.00;;;;;;4973346;28;20434;-77
2021/11/04 02:51:13;;;;;;;13.37;7.80;;;9.00;1.00;;;;;;5036361;28;20437;-77
2021/11/04 02:53:46;;;;;;;11.90;7.30;;;9.00;1.00;;;;;;5034014;28;20415;-77
2021/11/04 02:56:46;;;;;;;13.33;7.40;;;9.00;1.00;;;;;;5017824;28;20929;-78
2021/11/04 02:59:14;;;;;;;12.10;7.90;;;9.00;1.00;;;;;;5034248;28;20447;-78
2021/11/04 03:01:45;;;;;;;13.50;8.50;;;9.00;1.00;;;;;;5045740;28;20430;-79
2021/11/04 03:04:20;;;;;;;19.33;8.83;;;9.00;1.00;;;;;;5056879;28;20424;-78
2021/11/04 03:06:49;;;;;;;14.53;7.40;;;9.00;1.00;;;;;;5055835;28;20409;-78
2021/11/04 03:09:25;;;;;;;15.37;8.17;;;9.10;1.00;;;;;;5054872;28;20434;-78
2021/11/04 03:12:08;;;;;;;17.87;9.50;;;9.10;1.00;;;;;;5067844;28;20425;-78
2021/11/04 03:14:34;;;;;;;13.03;8.37;;;9.10;1.00;;;;;;5056103;28;20410;-77
2021/11/04 03:17:03;;;;;;;19.90;10.50;;;9.10;1.00;;;;;;5055682;28;20425;-77
2021/11/04 03:19:38;;;;;;;15.73;9.37;;;9.10;1.00;;;;;;5055806;28;20465;-78
2021/11/04 03:22:04;;;;;;;20.40;11.47;;;9.10;1.00;;;;;;5071304;28;20462;-77
2021/11/04 03:24:43;;;;;;;18.17;10.70;;;9.10;1.00;;;;;;5060687;28;20495;-77
2021/11/04 03:27:14;;;;;;;15.17;9.33;;;9.10;1.00;;;;;;5051198;28;20422;-77
2021/11/04 03:29:56;;;;;;;14.23;9.37;;;9.10;1.00;;;;;;5051896;28;20413;-77
2021/11/04 03:32:25;;;;;;;27.33;11.47;;;;;;;;;;5057284;28;20440;-76
2021/11/04 03:34:55;;;;;;;17.60;10.07;;;;;;;;;;5053996;28;20897;-76
2021/11/04 03:37:23;;;;;;;27.50;11.67;;;9.20;1.00;;;;;;5054423;28;20457;-76
2021/11/04 03:39:55;;;;;;;25.10;11.10;;;9.20;1.00;;;;;;5055711;28;20461;-76
2021/11/04 03:42:22;;;;;;;20.67;11.53;;;9.20;1.00;;;;;;5070179;28;20757;-76
2021/11/04 03:44:55;;;;;;;23.13;12.10;;;9.30;1.00;;;;;;5055813;28;20472;-76
2021/11/04 03:47:22;;;;;;;21.93;12.47;;;9.30;1.00;;;;;;5055298;28;20410;-76
2021/11/04 03:49:50;;;;;;;28.37;11.87;;;9.30;1.00;;;;;;5054296;28;20440;-77
2021/11/04 03:52:27;;;;;;;20.30;11.30;;;9.30;1.00;;;;;;5056564;28;20920;-76
2021/11/04 03:55:13;;;;;;;23.30;12.47;;;9.30;1.00;;;;;;5055513;28;20468;-77
2021/11/04 03:58:18;;;;;;;27.90;12.20;;;9.30;1.00;;;;;;5055161;28;20426;-77
2021/11/04 04:00:52;;;;;;;21.90;12.50;;;9.30;1.00;;;;;;5057030;28;20802;-76
2021/11/04 04:03:31;;;;;;;24.80;12.80;;;9.30;1.00;;;;;;5090688;28;20424;-76
2021/11/04 04:06:36;;;;;;;31.50;13.33;;;9.30;1.00;;;;;;5053704;28;20507;-76
2021/11/04 04:12:37;;;;;;;24.37;11.50;;;9.30;1.00;;;;;;5058113;28;21087;-76
2021/11/04 04:15:03;;;;;;;25.33;13.37;;;9.30;1.00;;;;;;5055142;28;20394;-76
2021/11/04 04:18:00;;;;;;;20.80;12.33;;;9.30;1.00;;;;;;5054851;28;20410;-76
2021/11/04 04:21:18;;;;;;;19.50;11.63;;;9.30;1.00;;;;;;5055093;28;20508;-76
2021/11/04 04:23:55;;;;;;;19.83;11.50;;;9.20;1.00;;;;;;5047791;28;20460;-76
2021/11/04 04:26:31;;;;;;;22.90;13.40;;;9.30;1.00;;;;;;5052126;28;20765;-77
2021/11/04 04:29:13;;;;;;;26.50;13.07;;;9.30;1.00;;;;;;5052841;28;20421;-77
2021/11/04 04:31:49;;;;;;;27.77;13.00;;;9.20;1.00;;;;;;5055685;28;20893;-78
2021/11/04 04:34:36;;;;;;;22.53;11.80;;;9.30;1.00;;;;;;5063168;28;20455;-78
2021/11/04 04:37:07;;;;;;;25.90;11.60;;;9.20;1.00;;;;;;5054698;28;20418;-78
2021/11/04 04:40:00;;;;;;;20.00;12.07;;;9.30;1.00;;;;;;5054097;28;20445;-78
2021/11/04 04:42:26;;;;;;;19.20;11.20;;;9.20;1.00;;;;;;5058660;28;20972;-77
2021/11/04 04:44:55;;;;;;;17.67;10.70;;;;;;;;;;5052872;28;20510;-78
2021/11/04 04:47:21;;;;;;;23.57;11.57;;;9.30;1.00;;;;;;5054382;28;20152;-78
2021/11/04 04:49:47;;;;;;;20.93;11.77;;;;;;;;;;5054488;28;20409;-78
2021/11/04 04:52:13;;;;;;;29.43;13.27;;;;;;;;;;5054029;28;20178;-78
2021/11/04 04:54:43;;;;;;;21.73;10.97;;;9.30;1.00;;;;;;5054107;28;20465;-78
2021/11/04 04:57:09;;;;;;;16.70;10.43;;;9.30;1.00;;;;;;5052984;28;20458;-78
2021/11/04 04:59:34;;;;;;;24.03;11.30;;;9.40;1.00;;;;;;5042620;28;20450;-78
2021/11/04 05:02:01;;;;;;;23.80;11.20;;;9.40;1.00;;;;;;5068541;28;20248;-78
2021/11/04 05:04:31;;;;;;;25.10;13.10;;;9.40;1.00;;;;;;5074164;28;20614;-77
2021/11/04 05:07:01;;;;;;;19.20;11.27;;;9.40;1.00;;;;;;5058266;28;20463;-78
2021/11/04 05:09:31;;;;;;;21.37;10.47;;;9.40;1.00;;;;;;5054108;28;20402;-78
2021/11/04 05:12:07;;;;;;;21.63;12.07;;;9.40;1.00;;;;;;5063040;28;20452;-76
2021/11/04 05:15:01;;;;;;;22.70;10.53;;;9.40;1.00;;;;;;5053860;28;20449;-76
2021/11/04 05:17:26;;;;;;;16.67;9.97;;;9.40;1.00;;;;;;5041024;28;20411;-76
2021/11/04 05:19:55;;;;;;;17.33;9.40;;;9.40;1.00;;;;;;5035912;28;20469;-76
2021/11/04 05:22:31;;;;;;;16.00;9.10;;;9.40;1.00;;;;;;5037894;28;20222;-76
2021/11/04 05:25:13;;;;;;;14.93;8.97;;;9.40;1.00;;;;;;5051246;28;20789;-76
2021/11/04 05:27:46;;;;;;;12.63;8.90;;;9.40;1.00;;;;;;5048686;28;20916;-78
2021/11/04 05:30:25;;;;;;;15.07;8.80;;;9.40;1.00;;;;;;5063492;28;20419;-78
2021/11/04 05:32:50;;;;;;;12.77;7.50;;;9.40;1.00;;;;;;5056569;28;20441;-80
2021/11/04 05:35:17;;;;;;;15.30;8.10;;;9.40;1.00;;;;;;5053692;28;20402;-78
2021/11/04 05:37:49;;;;;;;10.80;7.20;;;9.30;1.00;;;;;;5053285;28;20197;-78
2021/11/04 05:40:37;;;;;;;10.13;6.30;;;9.40;1.00;;;;;;5053496;28;20446;-77
2021/11/04 05:43:07;;;;;;;11.53;6.53;;;9.40;1.00;;;;;;5053981;28;20432;-76
2021/11/04 05:45:37;;;;;;;11.30;6.20;;;9.40;1.00;;;;;;5053339;28;20410;-76
2021/11/04 05:48:07;;;;;;;8.50;5.83;;;9.40;1.00;;;;;;5040805;28;20406;-76
2021/11/04 05:50:36;;;;;;;12.50;6.60;;;9.40;1.00;;;;;;5053511;28;20909;-76
2021/11/04 05:53:07;;;;;;;10.70;6.37;;;9.40;1.00;;;;;;5065304;28;20774;-76
2021/11/04 05:55:37;;;;;;;10.53;6.13;;;9.40;1.00;;;;;;5057572;28;20410;-76
2021/11/04 05:58:02;;;;;;;11.27;5.57;;;9.40;1.00;;;;;;5056254;28;20428;-78
2021/11/04 06:00:28;;;;;;;10.10;5.17;;;9.30;1.00;;;;;;5056894;28;20465;-78
2021/11/04 06:02:54;;;;;;;8.67;5.30;;;9.40;1.00;;;;;;5064617;28;20673;-78
2021/11/04 06:05:21;;;;;;;10.47;5.67;;;;;;;;;;5057116;28;20183;-78
2021/11/04 06:07:46;;;;;;;9.60;5.67;;;9.30;1.00;;;;;;5056761;28;20409;-78
2021/11/04 06:10:12;;;;;;;7.87;5.23;;;9.30;1.00;;;;;;5056663;28;20414;-78
2021/11/04 06:12:55;;;;;;;9.03;5.70;;;;;;;;;;5056825;28;20183;-78
2021/11/04 06:15:54;;;;;;;10.23;6.43;;;9.30;1.00;;;;;;5057539;28;20179;-78
2021/11/04 06:18:31;;;;;;;9.90;5.80;;;9.30;1.00;;;;;;5058301;28;20429;-78
2021/11/04 06:21:07;;;;;;;7.40;5.40;;;9.30;1.00;;;;;;5055996;28;20512;-78
2021/11/04 06:23:49;;;;;;;11.67;5.40;;;9.40;1.00;;;;;;5057868;28;20422;-78
2021/11/04 06:26:15;;;;;;;7.70;5.07;;;;;;;;;;5067179;28;20409;-78
2021/11/04 06:28:49;;;;;;;13.57;6.13;;;9.40;1.00;;;;;;5049450;28;20864;-76
2021/11/04 06:31:31;;;;;;;9.93;4.90;;;9.40;1.00;;;;;;5056078;28;20750;-76
2021/11/04 06:33:57;;;;;;;18.57;6.33;;;;;;;;;;5062649;28;20444;-76
2021/11/04 06:36:25;;;;;;;8.60;5.00;;;9.40;1.00;;;;;;5043895;28;20410;-76
2021/11/04 06:38:55;;;;;;;9.90;5.23;;;9.40;1.00;;;;;;5043676;28;20458;-76
2021/11/04 06:41:21;;;;;;;14.30;5.57;;;9.30;1.00;;;;;;5056783;28;20477;-76
2021/11/04 06:43:49;;;;;;;7.20;4.90;;;9.40;1.00;;;;;;5058736;28;20516;-76
2021/11/04 06:46:21;;;;;;;7.07;4.17;;;9.40;1.00;;;;;;5062447;28;20489;-76
2021/11/04 06:49:07;;;;;;;8.30;4.20;;;9.30;1.00;;;;;;5056448;28;20402;-76
2021/11/04 06:51:38;;;;;;;6.00;4.10;;;9.30;1.00;;;;;;5056614;28;20394;-76
2021/11/04 06:54:07;;;;;;;7.67;4.10;;;9.20;1.00;;;;;;5063335;28;20505;-76
2021/11/04 06:56:56;;;;;;;5.70;3.77;;;9.20;1.00;;;;;;5056816;28;20789;-76
2021/11/04 06:59:33;;;;;;;6.30;3.90;;;9.20;1.00;;;;;;5058805;28;21048;-78
2021/11/04 07:02:03;;;;;;;5.10;4.00;;;9.20;1.00;;;;;;5036527;28;20421;-78
2021/11/04 07:04:39;;;;;;;3.90;3.13;;;9.10;1.00;;;;;;5058931;28;20429;-78
2021/11/04 07:07:09;;;;;;;4.20;3.10;;;9.10;1.00;;;;;;5054309;28;20418;-78
2021/11/04 07:09:39;;;;;;;5.47;3.57;;;9.00;1.00;;;;;;5055899;28;20446;-77
2021/11/04 07:12:08;;;;;;;4.50;3.57;;;9.00;1.00;;;;;;5061562;28;20436;-78
2021/11/04 07:14:36;;;;;;;5.27;3.13;;;9.00;1.00;;;;;;5057117;28;20421;-78
2021/11/04 07:17:08;;;;;;;14.90;4.80;;;9.00;1.00;;;;;;5062840;28;20465;-77
2021/11/04 07:19:34;;;;;;;6.90;4.13;;;9.10;1.00;;;;;;5069611;28;20499;-77
2021/11/04 07:22:45;;;;;;;7.87;3.50;;;9.00;1.00;;;;;;5068950;28;20483;-77
2021/11/04 07:25:15;;;;;;;4.67;3.80;;;9.00;1.00;;;;;;4978020;28;20528;-82
2021/11/04 07:28:00;;;;;;;5.10;4.17;;;9.00;1.00;;;;;;4984421;28;20910;-77
2021/11/04 07:30:43;;;;;;;6.43;4.53;;;9.00;1.00;;;;;;4991591;28;20437;-77
2021/11/04 07:33:10;;;;;;;9.23;5.10;;;9.00;1.00;;;;;;4986634;28;20485;-77
2021/11/04 07:35:44;;;;;;;197.57;61.43;;;;;;;;;;4969537;28;20451;-78
2021/11/04 07:38:12;;;;;;;162.33;56.93;;;;;;;;;;4974243;28;20440;-79
2021/11/04 07:40:39;;;;;;;14.63;5.50;;;9.10;1.00;;;;;;4975000;28;20460;-76
2021/11/04 07:43:06;;;;;;;16.73;6.23;;;;;;;;;;4981723;28;20511;-76
2021/11/04 07:45:32;;;;;;;21.67;7.13;;;9.10;1.00;;;;;;4977864;28;20417;-76
2021/11/04 07:47:59;;;;;;;45.07;11.23;;;;;;;;;;4989733;28;20844;-77
2021/11/04 07:50:27;;;;;;;45.77;18.73;;;;;;;;;;4993200;28;20504;-76
2021/11/04 07:52:54;;;;;;;27.17;8.20;;;;;;;;;;4988271;28;20431;-76
2021/11/04 07:55:20;;;;;;;86.37;13.70;;;;;;;;;;4978366;28;20448;-76
2021/11/04 07:57:55;;;;;;;29.03;11.23;;;;;;;;;;4993569;28;20460;-75
2021/11/04 08:01:12;;;;;;;23.10;8.37;;;8.90;1.00;;;;;;4992447;28;20974;-77
2021/11/04 08:03:55;;;;;;;16.13;7.83;;;;;;;;;;5047768;28;20417;-76
2021/11/04 08:06:21;;;;;;;24.73;10.47;;;9.10;1.00;;;;;;5036835;28;20395;-76
2021/11/04 08:08:48;;;;;;;35.60;11.43;;;;;;;;;;5052916;28;21205;-75
2021/11/04 08:11:25;;;;;;;31.83;10.87;;;;;;;;;;5050804;28;20759;-75
2021/11/04 08:13:55;;;;;;;22.30;10.53;;;;;;;;;;5062628;28;20479;-76
2021/11/04 08:16:37;;;;;;;36.50;13.07;;;9.00;1.00;;;;;;5052483;28;20483;-76
2021/11/04 08:19:30;;;;;;;28.47;10.90;;;9.00;1.00;;;;;;5063627;28;20475;-75
2021/11/04 08:22:07;;;;;;;23.13;9.90;;;9.10;1.00;;;;;;5053402;28;20429;-76
2021/11/04 08:24:33;;;;;;;25.87;10.90;;;9.10;1.00;;;;;;5040572;28;21006;-76
2021/11/04 08:27:01;;;;;;;22.73;9.90;;;9.00;1.00;;;;;;5054559;28;20414;-76
2021/11/04 08:29:27;;;;;;;31.83;11.57;;;9.10;1.00;;;;;;5048517;28;20180;-76
2021/11/04 08:31:52;;;;;;;21.93;10.60;;;9.00;1.00;;;;;;5048338;28;20424;-76
2021/11/04 08:34:18;;;;;;;22.27;9.90;;;9.40;1.00;;;;;;5054393;28;20274;-76
2021/11/04 08:36:49;;;;;;;19.90;9.30;;;9.10;1.00;;;;;;5055161;28;20188;-76
2021/11/04 08:39:19;;;;;;;34.70;10.53;;;;;;;;;;5048717;28;20227;-76
2021/11/04 08:42:07;;;;;;;21.00;9.60;;;9.10;1.00;;;;;;5045400;28;20754;-76
2021/11/04 08:44:37;;;;;;;22.87;9.40;;;9.20;1.00;;;;;;5053822;28;20420;-76
2021/11/04 08:47:19;;;;;;;26.03;9.60;;;;;;;;;;5055312;28;20816;-76
2021/11/04 08:49:45;;;;;;;27.00;10.40;;;9.20;1.00;;;;;;5054310;28;20410;-76
2021/11/04 08:52:13;;;;;;;27.67;10.80;;;;;;;;;;5054226;28;20410;-76
2021/11/04 08:54:40;;;;;;;27.00;10.90;;;9.20;1.00;;;;;;5054248;28;20182;-76
2021/11/04 08:57:12;;;;;;;25.17;10.63;;;9.20;1.00;;;;;;5059547;28;20504;-76
2021/11/04 08:59:43;;;;;;;21.53;10.00;;;8.80;1.00;;;;;;5054841;28;21017;-76
2021/11/04 09:02:21;;;;;;;35.80;11.50;;;9.20;1.00;;;;;;5050071;28;20411;-76
2021/11/04 09:05:08;;;;;;;21.77;10.00;;;9.20;1.00;;;;;;5048135;28;20426;-77
2021/11/04 09:07:44;;;;;;;24.37;9.97;;;9.20;1.00;;;;;;5052900;28;20821;-77
2021/11/04 09:10:15;;;;;;;20.67;8.87;;;8.80;1.00;;;;;;5052984;28;20461;-79
2021/11/04 09:12:41;;;;;;;24.33;10.13;;;9.40;1.00;;;;;;5053326;28;20416;-76
2021/11/04 09:15:37;;;;;;;24.53;10.10;;;9.20;1.00;;;;;;5056768;28;20414;-76
2021/11/04 09:18:24;;;;;;;19.37;8.90;;;9.70;1.00;;;;;;5053861;28;20402;-77
2021/11/04 09:21:01;;;;;;;29.23;10.13;;;;;;;;;;5061295;28;20963;-76
2021/11/04 09:23:27;;;;;;;50.37;12.17;;;9.40;1.00;;;;;;5046160;28;20422;-75
2021/11/04 09:25:55;;;;;;;26.87;10.23;;;9.40;1.00;;;;;;5035732;28;20418;-76
2021/11/04 09:28:31;;;;;;;20.00;8.30;;;9.40;1.00;;;;;;5053146;28;20494;-76
2021/11/04 09:31:01;;;;;;;21.60;8.90;;;9.50;1.00;;;;;;5054057;28;20935;-75
2021/11/04 09:33:26;;;;;;;19.87;7.67;;;9.30;1.00;;;;;;5055321;28;20430;-76
2021/11/04 09:35:55;;;;;;;21.13;8.83;;;;;;;;;;5040154;28;20923;-75
2021/11/04 09:38:26;;;;;;;12.93;7.07;;;9.60;1.00;;;;;;5052966;28;20618;-75
2021/11/04 09:41:01;;;;;;;13.83;5.80;;;;;;;;;;5033785;28;20403;-75
2021/11/04 09:45:54;;;;;;;18.80;6.70;;;;;;;;;;5029439;28;20606;-75
2021/11/04 09:48:37;;;;;;;59.70;9.80;;;;;;;;;;5040204;28;20867;-76
2021/11/04 09:51:30;;;;;;;14.33;6.50;;;9.90;1.00;;;;;;5000893;28;20427;-75
2021/11/04 09:54:01;;;;;;;12.90;5.77;;;9.90;1.00;;;;;;4996131;28;20431;-75
2021/11/04 09:56:43;;;;;;;35.73;6.53;;;9.90;1.00;;;;;;5006688;28;20431;-75
2021/11/04 09:59:14;;;;;;;10.13;5.97;;;9.90;1.00;;;;;;5007940;28;20391;-76
2021/11/04 10:02:33;;;;;;;13.20;7.17;;;10.00;1.00;;;;;;5007946;28;20517;-75
2021/11/04 10:05:13;;;;;;;8.10;4.40;;;10.10;1.00;;;;;;5041248;28;20859;-75
2021/11/04 10:07:50;;;;;;;13.33;6.90;;;10.10;1.00;;;;;;5032444;28;20427;-75
2021/11/04 10:10:20;;;;;;;29.00;8.17;;;10.20;1.00;;;;;;5025612;28;20971;-74
2021/11/04 10:13:03;;;;;;;14.33;6.50;;;10.00;1.00;;;;;;5033801;28;20765;-74
2021/11/04 10:15:31;;;;;;;36.77;5.27;;;10.40;1.00;;;;;;5024832;28;20550;-74
2021/11/04 10:18:09;;;;;;;15.60;6.33;;;;;;;;;;5026706;28;20437;-74
2021/11/04 10:20:35;;;;;;;25.27;6.90;;;10.50;1.00;;;;;;5029911;28;20407;-74
2021/11/04 10:23:11;;;;;;;19.57;6.40;;;10.60;1.00;;;;;;5046526;28;20418;-74
2021/11/04 10:25:38;;;;;;;14.93;6.20;;;10.70;1.00;;;;;;5046261;28;20872;-74
2021/11/04 10:28:36;;;;;;;18.83;7.27;;;;;;;;;;5038555;28;20596;-74
2021/11/04 10:31:03;;;;;;;12.50;6.43;;;;;;;;;;5029052;28;20416;-75
2021/11/04 10:33:40;;;;;;;15.37;7.23;;;10.70;1.00;;;;;;5032413;28;20912;-74
2021/11/04 10:36:17;;;;;;;22.60;8.10;;;10.80;1.00;;;;;;5043667;28;20881;-74
2021/11/04 10:38:46;;;;;;;20.87;7.60;;;;;;;;;;5047498;28;20422;-75
2021/11/04 10:41:43;;;;;;;16.60;6.93;;;;;;;;;;5016990;28;20788;-74
2021/11/04 10:44:15;;;;;;;11.60;5.97;;;10.70;1.00;;;;;;4994680;28;20824;-74
2021/11/04 10:46:52;;;;;;;13.13;6.87;;;10.60;1.00;;;;;;5003726;28;20499;-76
2021/11/04 10:49:19;;;;;;;19.00;7.50;;;;;;;;;;5000979;28;20416;-76
2021/11/04 10:52:07;;;;;;;13.80;6.27;;;10.70;1.00;;;;;;5004977;28;20414;-77
2021/11/04 10:54:47;;;;;;;20.57;6.40;;;;;;;;;;4989681;28;20432;-76
2021/11/04 10:57:45;;;;;;;16.40;6.90;;;10.70;1.00;;;;;;4993467;28;20520;-76
2021/11/04 11:00:22;;;;;;;29.20;8.17;;;10.70;1.00;;;;;;5003828;28;20511;-76
2021/11/04 11:02:57;;;;;;;14.40;7.17;;;;;;;;;;5033643;28;20423;-76
2021/11/04 11:05:32;;;;;;;16.13;7.20;;;;;;;;;;5026598;28;20461;-76
2021/11/04 11:08:02;;;;;;;15.53;7.23;;;10.40;1.00;;;;;;5019871;28;20462;-76
2021/11/04 11:10:32;;;;;;;15.60;8.10;;;10.30;1.00;;;;;;5033440;28;20423;-76
2021/11/04 11:13:13;;;;;;;19.93;6.53;;;;;;;;;;5032017;28;20427;-76
2021/11/04 11:15:45;;;;;;;18.17;7.13;;;;;;;;;;5034265;28;20545;-74
2021/11/04 11:18:11;;;;;;;23.53;7.43;;;;;;;;;;5024556;28;20427;-74
2021/11/04 11:20:45;;;;;;;20.87;7.90;;;10.30;1.00;;;;;;5028547;28;20427;-74
2021/11/04 11:23:19;;;;;;;19.17;7.70;;;10.20;1.00;;;;;;5033066;28;20819;-74
2021/11/04 11:25:57;;;;;;;22.27;7.50;;;10.20;1.00;;;;;;5025459;28;20435;-74
2021/11/04 11:28:29;;;;;;;17.07;7.00;;;10.30;1.00;;;;;;5027241;28;20446;-74
2021/11/04 11:31:11;;;;;;;17.30;8.03;;;;;;;;;;5026414;28;20709;-74
2021/11/04 11:34:12;;;;;;;27.70;7.37;;;10.40;1.00;;;;;;5021081;28;20427;-74
2021/11/04 11:36:39;;;;;;;18.07;7.33;;;;;;;;;;4993460;28;20540;-74
2021/11/04 11:39:09;;;;;;;20.70;7.40;;;10.50;1.00;;;;;;4992017;28;20855;-74
2021/11/04 11:41:57;;;;;;;15.80;6.43;;;10.40;1.00;;;;;;4991211;28;20455;-74
2021/11/04 11:44:37;;;;;;;12.57;6.37;;;10.40;1.00;;;;;;4992566;28;20450;-73
2021/11/04 11:47:27;;;;;;;13.77;6.73;;;;;;;;;;4993512;28;20396;-73
2021/11/04 11:50:21;;;;;;;14.00;5.87;;;10.40;1.00;;;;;;5019995;28;20427;-73
2021/11/04 11:52:59;;;;;;;13.67;5.60;;;10.60;1.00;;;;;;5011007;28;20959;-74
2021/11/04 11:55:41;;;;;;;15.07;5.60;;;;;;;;;;5020332;28;21024;-74
2021/11/04 11:58:23;;;;;;;14.90;6.40;;;;;;;;;;5033077;28;20419;-72
2021/11/04 12:00:55;;;;;;;22.07;8.23;;;;;;;;;;5018513;28;20889;-76
2021/11/04 12:03:38;;;;;;;22.47;7.27;;;;;;;;;;5026149;28;20505;-76
2021/11/04 12:06:39;;;;;;;16.43;6.23;;;10.70;1.00;;;;;;5036840;28;20514;-76
2021/11/04 12:09:05;;;;;;;13.80;5.80;;;;;;;;;;5032006;28;20410;-76
2021/11/04 12:11:38;;;;;;;10.63;5.83;;;;;;;;;;5031713;28;20573;-76
2021/11/04 12:14:16;;;;;;;16.73;6.07;;;;;;;;;;5008155;28;20466;-75
2021/11/04 12:17:04;;;;;;;18.43;6.10;;;;;;;;;;5024862;28;20977;-78
2021/11/04 12:19:53;;;;;;;19.80;6.40;;;10.60;1.00;;;;;;5028386;28;20434;-79
2021/11/04 12:22:19;;;;;;;10.10;5.53;;;;;;;;;;5017640;28;20450;-80
2021/11/04 12:24:58;;;;;;;12.67;5.53;;;10.40;1.00;;;;;;5013126;28;20750;-79
2021/11/04 12:27:24;;;;;;;13.00;6.20;;;;;;;;;;4990106;28;20498;-79
2021/11/04 12:29:56;;;;;;;9.43;5.20;;;;;;;;;;4972801;28;20877;-79
2021/11/04 12:32:25;;;;;;;12.80;5.57;;;10.40;1.00;;;;;;4990887;28;20433;-76
2021/11/04 12:34:59;;;;;;;13.00;5.37;;;10.50;1.00;;;;;;4987140;28;20461;-76
2021/11/04 12:37:27;;;;;;;20.93;5.57;;;;;;;;;;4987250;28;20845;-76
2021/11/04 12:39:54;;;;;;;10.57;5.07;;;;;;;;;;4974066;28;20791;-77
2021/11/04 12:42:20;;;;;;;12.73;5.60;;;;;;;;;;4987308;28;20495;-77
2021/11/04 12:44:46;;;;;;;15.77;6.50;;;10.70;1.00;;;;;;4989696;28;20460;-77
2021/11/04 12:47:23;;;;;;;11.27;4.77;;;10.70;1.00;;;;;;4979684;28;20843;-78
2021/11/04 12:49:51;;;;;;;11.93;6.70;;;10.60;1.00;;;;;;4991285;28;20487;-78
2021/11/04 12:52:17;;;;;;;14.33;5.70;;;;;;;;;;4982435;28;20482;-78
2021/11/04 12:54:45;;;;;;;13.20;4.87;;;;;;;;;;5013635;28;20988;-78
2021/11/04 12:57:12;;;;;;;11.50;4.97;;;;;;;;;;4983890;28;20456;-79
2021/11/04 12:59:43;;;;;;;17.97;5.77;;;;;;;;;;4973093;28;20418;-78
2021/11/04 13:02:35;;;;;;;12.07;5.33;;;10.30;1.00;;;;;;4987883;28;20424;-78
2021/11/04 13:05:01;;;;;;;9.50;4.80;;;;;;;;;;4987803;28;20522;-78
2021/11/04 13:07:34;;;;;;;8.33;4.20;;;10.40;1.00;;;;;;4984295;28;20431;-78
2021/11/04 13:10:16;;;;;;;10.80;5.60;;;;;;;;;;4990825;28;20424;-78
2021/11/04 13:12:47;;;;;;;8.93;4.60;;;10.40;1.00;;;;;;4989457;28;20428;-78
2021/11/04 13:15:20;;;;;;;7.47;4.57;;;;;;;;;;4977786;28;20511;-78
2021/11/04 13:17:53;;;;;;;9.73;4.07;;;10.30;1.00;;;;;;4987035;28;20444;-78
2021/11/04 13:20:46;;;;;;;207.80;20.27;;;10.30;1.00;;;;;;4980231;28;20463;-79
2021/11/04 13:23:25;;;;;;;15.23;5.40;;;10.20;1.00;;;;;;4988809;28;20524;-79
2021/11/04 13:25:56;;;;;;;14.80;5.77;;;;;;;;;;4988000;28;20417;-79
2021/11/04 13:28:29;;;;;;;7.90;4.27;;;10.20;1.00;;;;;;4973033;28;20416;-79
2021/11/04 13:31:07;;;;;;;6.80;3.30;;;10.20;1.00;;;;;;4979244;28;20472;-79
2021/11/04 13:33:35;;;;;;;14.03;4.83;;;10.20;1.00;;;;;;4973366;28;20421;-76
2021/11/04 13:36:02;;;;;;;13.60;4.00;;;;;;;;;;4985052;28;20428;-76
2021/11/04 13:38:28;;;;;;;9.87;4.47;;;;;;;;;;4982866;28;20422;-78
2021/11/04 13:41:04;;;;;;;10.57;4.87;;;;;;;;;;4976022;28;20422;-77
2021/11/04 13:43:40;;;;;;;9.17;4.30;;;;;;;;;;4987027;28;20431;-77
2021/11/04 13:46:10;;;;;;;7.27;3.80;;;;;;;;;;4982919;28;20468;-76
2021/11/04 13:48:41;;;;;;;12.07;4.40;;;;;;;;;;4981647;28;20433;-79
2021/11/04 13:51:07;;;;;;;10.57;4.40;;;;;;;;;;4981669;28;20421;-75
2021/11/04 13:53:35;;;;;;;9.50;4.10;;;10.60;1.00;;;;;;4984290;28;20417;-77
2021/11/04 13:56:11;;;;;;;6.50;3.70;;;;;;;;;;4998806;28;20512;-74
2021/11/04 13:58:45;;;;;;;7.23;4.10;;;;;;;;;;4978507;28;20405;-78
2021/11/04 14:01:12;;;;;;;7.20;4.37;;;10.60;1.00;;;;;;4988309;28;20416;-77